Airfield :
LOGIN :

Register | Disclaimer

   EN    FR    IT 

 










Legend :    VFR   Marginal VFR   IFR   Intensive IFR   Very Intensive IFR
Visi :
Ceiling :
>= 8 km
>= 3000ft
5 to 8 km
1000 to 3000 ft
1500m to 5 km
500 to 1000 ft
800 to 1500m
200 to 500 ft
< 800m
< 200 ft
Symbols :   Thunderstorms  Fog  Heavy snow  Heavy precipitations  Wind > 20 kt
SIGMETs :     Misc.  Thunderstorms  Icing  Turbulence  Mountain Waves  Volcanic Ashes






- Airport Elevation : 779 ft
- IATA code : CMF


LFLB - Chambery / Aix-Les-Bains

CURRENT METAR :
  • 011430Z AUTO VRB01KT 9999 ///CB 21/15 Q1014 TEMPO 2000 TSRA

EXPIRED METARs :
  • 011400Z AUTO VRB03KT CAVOK 20/15 Q1014 TEMPO 2000 TSRA SCT040CB
  • 011330Z AUTO VRB02KT 9999 FEW029/// BKN088/// BKN210/// ///TCU 20/15 Q1014 TEMPO 2000 TSRA SCT040CB
  • 011300Z AUTO VRB03KT 8000 RA FEW026/// BKN041/// BKN052/// ///TCU 18/16 Q1014 TEMPO 2000 TSRA SCT040CB
  • 011230Z AUTO 36012KT 9999 RA FEW024/// BKN066/// OVC088/// ///TCU 19/16 Q1014 TEMPO 2000 TSRA SCT040CB
  • 011200Z AUTO 35005KT 290V040 9999 FEW024/// SCT064/// BKN082/// ///CB 20/16 Q1013 TEMPO 2000 TSRA
  • 011130Z AUTO 36005KT 300V040 9999 FEW033/// BKN072/// OVC098/// ///CB 19/16 Q1013 TEMPO 4000 RA BECMG SCT020 BKN040

TAF TAF LFLB
Valid from the 01 at 15:00 until the 02 at 15:00 UTC


011400Z 0115/0215 VRB02KT 9999 SCT045 BKN080
TEMPO 0115/0120 36010KT 4000 SHRA BKN045TCU
PROB40
TEMPO 0115/0119 2000 TSRA SCT040CB
PROB40
TEMPO 0201/0208 3000 MIFG
PROB30
TEMPO 0204/0207 BKN013



MET'MAP, your aeronautical weather chart ! - Copyright ORBIFLY December 2007 - Disclaimer

ORBIFLY MET'MAP TEAM :

Programming & Development : Alexandra Zaïnal
Concept & original design : Baudouin d'Aumeries
Assistance for programming : Marc-Olivier Méhu
Technical & hardware support : Manuel Goepfert

Contact : metmap@orbifly.com




SOURCES & CREDITS :

   NOAA